map of KLR home
KLR - Airport
Location
City:  Kalmar, Kalmar län, Sweden
ICAO:ESMQ
IATA:KLR

Details
Type:Airport (Aerodrome, Airfield)
Use:Public/Civil
Latitude:56°41'08"N (56.685531)
Longitude:16°17'15"E (16.287578)
Datum:WGS 1984
Elevation:17 ft (5 m)
Variation:5.15°E (WMM2015 magnetic declination)
0.15° annual change
Runways:2
Longest:6726 × 148 ft (2050 × 45 m), paved

Time
Time Zone:UTC+1 (DST+2)
Local Time:

Weather
METAR:ESMQ 182350Z AUTO 34008KT 5000 NCD 21/16 Q1012

Related Locations
Nearby:
Farthest:CHT: 11382 mi / 18317 km
Waitangi [Tuuta], CIT, NZ

Find:

   beyond  
but within

Other Information
Maps:
NOTAMs:
Links:
Sources:

  
  • flag of Sweden
  

Sectional Chart

Flight Planning
at skyvector.com

Satellite Image

Google Maps Satellite view

 

Copyright © 2004-2018 Karl L. Swartz. All rights reserved.
The Great Circle Mapper name and logo are trademarks of the Great Circle Mapper.
All other trademarks mentioned herein belong to their respective owners.
Please see credits for attibutions and further copyright information.

  Follow gcmap on Facebook Follow gcmap on Twitter Follow gcmap on Google+ GCmap on LinkedIn

hCard Microformat

Geo Microformat